Latest Coastal Weather Observations for Mandurah

IDW60701

Issued at 3:05 pm WST Saturday 25 October 2014 (issued every 10 minutes, with the page automatically refreshed every 10 minutes)

About coastal observations | Map of coastal stations | Coastal observations for WA | Marine services | Other Formats
Station Details ID: 009977 Name: MANDURAH Lat: -32.52 Lon: 115.71 Height: 3.0 m
Data from the previous 72 hours. | See also: Recent months at Mandurah
Date/Time
WST
Temp

°C
Wind Pressure Rain
since 9am
mm
Weather Cloud Vis
km
Sea
Height
m
Swell
Dir
 
Speed
knots
Gust
knots
hPa Trend Height
m
Period
s
Dir
25/03:00pm 20.0 WNW 16 21 1017.4 - 0.0 - - - - - - -
25/02:30pm 21.6 WNW 12 15 1017.2 - 0.0 - - - - - - -
25/02:00pm 21.2 WNW 11 14 1017.3 - 0.0 - - - - - - -
25/01:30pm 21.3 WNW 11 14 1017.5 - 0.0 - - - - - - -
25/01:00pm 21.4 WNW 10 13 1017.6 - 0.0 - - - - - - -
25/12:30pm 21.2 W 10 13 1017.6 - 0.0 - - - - - - -
25/12:00pm 20.7 W 11 14 1017.7 - 0.0 - - - - - - -
25/11:30am 20.1 WSW 6 13 1017.8 - 0.0 - - - - - - -
25/11:00am 21.0 W 9 11 1017.9 - 0.0 - - - - - - -
25/10:30am 22.1 WSW 8 12 1017.8 - 0.0 - - - - - - -
25/10:00am 21.4 WSW 8 12 1017.7 - 0.0 - - - - - - -
25/09:30am 21.0 W 9 12 1017.6 - 0.0 - - - - - - -
25/09:00am 20.4 WSW 7 11 1017.4 - 0.0 - - - - - - -
25/08:30am 19.4 WSW 8 12 1017.1 - 0.0 - - - - - - -
25/08:00am 19.4 WSW 9 14 1016.9 - 0.0 - - - - - - -
25/07:30am 19.0 WSW 7 10 1016.6 - 0.0 - - - - - - -
25/07:00am 18.8 WSW 6 9 1016.4 - 0.0 - - - - - - -
25/06:30am 18.1 WSW 8 14 1016.1 - 0.0 - - - - - - -
25/06:00am 17.6 WSW 7 11 1015.8 - 0.0 - - - - - - -
25/05:30am 17.6 WSW 9 12 1015.3 - 0.0 - - - - - - -
25/05:00am 17.7 WSW 9 13 1015.1 - 0.0 - - - - - - -
25/04:30am 17.6 WSW 10 15 1015.0 - 0.0 - - - - - - -
25/04:00am 17.8 W 10 15 1014.9 - 0.0 - - - - - - -
25/03:30am 16.6 NE 2 4 1014.8 - 0.0 - - - - - - -
25/03:00am 16.2 NE 2 4 1014.7 - 0.0 - - - - - - -
25/02:30am 16.3 NE 3 4 1014.7 - 0.0 - - - - - - -
25/02:00am 15.9 ENE 3 4 1014.4 - 0.0 - - - - - - -
25/01:30am 15.7 CALM 0 2 1014.9 - 0.0 - - - - - - -
25/01:00am 15.8 SSW 2 3 1014.9 - 0.0 - - - - - - -
25/12:30am 16.6 CALM 0 0 1015.0 - 0.0 - - - - - - -
25/12:00am 17.4 SSW 0 0 1015.1 - 0.0 - - - - - - -
 
Date/Time
WST
Temp

°C
Wind Pressure Rain
since 9am
mm
Weather Cloud Vis
km
Sea
Height
m
Swell
Dir
 
Speed
knots
Gust
knots
hPa Trend Height
m
Period
s
Dir
24/11:30pm 17.4 SSW 1 2 1015.3 - 0.0 - - - - - - -
24/11:00pm 17.8 SSW 1 2 1015.5 - 0.0 - - - - - - -
24/10:30pm 17.9 SSW 3 4 1015.6 - 0.0 - - - - - - -
24/10:00pm 18.1 SW 3 5 1015.8 - 0.0 - - - - - - -
24/09:30pm 18.1 SW 3 4 1015.7 - 0.0 - - - - - - -
24/09:00pm 18.2 SSW 2 4 1015.7 - 0.0 - - - - - - -
24/08:30pm 18.2 SSW 3 4 1015.8 - 0.0 - - - - - - -
24/08:00pm 18.5 SSW 4 5 1015.8 - 0.0 - - - - - - -
24/07:30pm 18.9 S 4 7 1015.4 - 0.0 - - - - - - -
24/07:00pm 19.2 S 5 8 1015.3 - 0.0 - - - - - - -
24/06:30pm 19.6 SSW 5 8 1015.3 - 0.0 - - - - - - -
24/06:00pm 20.3 SSW 7 10 1015.1 - 0.0 - - - - - - -
24/05:30pm 21.2 SW 6 10 1015.1 - 0.0 - - - - - - -
24/05:00pm 21.4 SW 8 11 1014.9 - 0.0 - - - - - - -
24/04:30pm 21.5 SW 11 15 1014.9 - 0.0 - - - - - - -
24/04:00pm 21.9 SW 10 14 1014.8 - 0.0 - - - - - - -
24/03:30pm 21.9 SW 12 15 1014.9 - 0.0 - - - - - - -
24/03:00pm 23.0 WSW 9 11 1014.8 - 0.0 - - - - - - -
24/02:30pm 23.2 WSW 8 10 1015.1 - 0.0 - - - - - - -
24/02:00pm 22.6 WSW 9 12 1015.4 - 0.0 - - - - - - -
24/01:30pm 22.8 WSW 10 13 1015.9 - 0.0 - - - - - - -
24/01:00pm 23.2 WSW 8 11 1016.0 - 0.0 - - - - - - -
24/12:30pm 22.7 W 8 11 1016.3 - 0.0 - - - - - - -
24/12:00pm 22.1 W 8 10 1016.6 - 0.0 - - - - - - -
24/11:30am 21.2 W 7 9 1016.9 - 0.0 - - - - - - -
24/11:00am 20.8 WNW 6 7 1017.3 - 0.0 - - - - - - -
24/10:30am 20.9 WNW 5 6 1017.6 - 0.0 - - - - - - -
24/10:00am 20.9 NW 4 5 1017.7 - 0.0 - - - - - - -
24/09:30am 20.1 N 2 2 1018.1 - 0.0 - - - - - - -
24/09:00am 19.2 NE 4 5 1018.3 - 0.0 - - - - - - -
24/08:30am 18.0 NE 4 5 1018.0 - 0.0 - - - - - - -
24/08:00am 16.9 NNE 3 5 1018.3 - 0.0 - - - - - - -
24/07:30am 15.8 ENE 4 6 1018.0 - 0.0 - - - - - - -
24/07:00am 15.4 ENE 4 6 1018.1 - 0.0 - - - - - - -
24/06:30am 14.1 E 3 5 1017.8 - 0.0 - - - - - - -
24/06:00am 13.7 ESE 2 3 1017.9 - 0.0 - - - - - - -
24/05:30am 13.8 SE 3 4 1017.5 - 0.0 - - - - - - -
24/05:00am 14.1 ESE 3 4 1017.6 - 0.0 - - - - - - -
24/04:30am 14.7 SSE 4 5 1017.3 - 0.0 - - - - - - -
24/04:00am 14.3 SE 3 5 1017.5 - 0.0 - - - - - - -
24/03:30am 14.7 SE 4 6 1017.4 - 0.0 - - - - - - -
24/03:00am 15.4 SSE 5 6 1017.5 - 0.0 - - - - - - -
24/02:30am 15.4 SE 4 6 1017.6 - 0.0 - - - - - - -
24/02:00am 15.6 SE 5 7 1017.6 - 0.0 - - - - - - -
24/01:30am 15.5 SSE 4 8 1017.6 - 0.0 - - - - - - -
24/01:00am 16.0 SSE 4 5 1017.4 - 0.0 - - - - - - -
24/12:30am 15.8 SE 4 6 1017.7 - 0.0 - - - - - - -
24/12:00am 15.9 SE 5 6 1017.5 - 0.0 - - - - - - -
 
Date/Time
WST
Temp

°C
Wind Pressure Rain
since 9am
mm
Weather Cloud Vis
km
Sea
Height
m
Swell
Dir
 
Speed
knots
Gust
knots
hPa Trend Height
m
Period
s
Dir
23/11:30pm 16.2 ESE 5 6 1017.6 - 0.0 - - - - - - -
23/11:00pm 17.4 SSE 4 6 1017.6 - 0.0 - - - - - - -
23/10:30pm 17.8 S 6 9 1017.8 - 0.0 - - - - - - -
23/10:00pm 17.7 S 6 8 1017.9 - 0.0 - - - - - - -
23/09:30pm 17.7 SSW 6 10 1018.1 - 0.0 - - - - - - -
23/09:00pm 17.8 SSW 6 11 1018.0 - 0.0 - - - - - - -
23/08:30pm 18.1 SSW 6 10 1018.0 - 0.0 - - - - - - -
23/08:00pm 18.3 SSW 6 10 1017.9 - 0.0 - - - - - - -
23/07:30pm 18.5 SSW 6 10 1017.7 - 0.0 - - - - - - -
23/07:00pm 18.8 SSW 6 10 1017.4 - 0.0 - - - - - - -
23/06:30pm 19.0 SSW 6 10 1017.1 - 0.0 - - - - - - -
23/06:00pm 19.6 SSW 7 10 1016.7 - 0.0 - - - - - - -
23/05:30pm 19.6 SSW 9 15 1016.6 - 0.0 - - - - - - -
23/05:00pm 20.0 SW 10 16 1016.5 - 0.0 - - - - - - -
23/04:30pm 20.2 WSW 11 17 1016.2 - 0.0 - - - - - - -
23/04:00pm 20.2 SW 12 17 1016.2 - 0.0 - - - - - - -
23/03:30pm 20.5 SW 12 18 1016.1 - 0.0 - - - - - - -
23/03:00pm 20.8 WSW 12 20 1016.1 - 0.0 - - - - - - -
23/02:30pm 20.0 SW 11 17 1016.3 - 0.0 - - - - - - -
23/02:00pm 19.3 SW 9 15 1016.4 - 0.0 - - - - - - -
23/01:30pm 20.2 SW 10 15 1016.2 - 0.0 - - - - - - -
23/01:00pm 19.9 S 7 11 1016.1 - 0.0 - - - - - - -
23/12:30pm 19.8 SW 11 15 1016.1 - 0.0 - - - - - - -
23/12:00pm 20.4 SW 13 17 1016.0 - 0.0 - - - - - - -
23/11:30am 21.2 WSW 11 17 1016.0 - 0.0 - - - - - - -
23/11:00am 21.3 WSW 12 17 1016.1 - 0.0 - - - - - - -
23/10:30am 20.8 WSW 10 16 1015.9 - 0.0 - - - - - - -
23/10:00am 20.9 WSW 11 17 1015.7 - 0.0 - - - - - - -
23/09:30am 20.1 WSW 9 15 1015.5 - 0.0 - - - - - - -
23/09:00am 20.4 W 9 13 1015.1 - 0.8 - - - - - - -
23/08:30am 20.1 W 9 14 1014.9 - 0.8 - - - - - - -
23/08:00am 19.4 W 10 14 1014.7 - 0.8 - - - - - - -
23/07:30am 19.1 W 10 14 1014.5 - 0.8 - - - - - - -
23/07:00am 18.4 W 9 14 1014.1 - 0.8 - - - - - - -
23/06:30am 18.3 W 10 15 1013.8 - 0.8 - - - - - - -
23/06:00am 17.9 W 9 14 1013.6 - 0.8 - - - - - - -
23/05:30am 17.9 W 10 14 1013.1 - 0.8 - - - - - - -
23/05:00am 17.5 W 9 13 1012.8 - 0.8 - - - - - - -
23/04:30am 17.8 WSW 7 10 1012.6 - 0.8 - - - - - - -
23/04:00am 17.9 NW 12 16 1012.4 - 0.8 - - - - - - -
23/03:30am 17.8 NW 10 12 1012.7 - 0.8 - - - - - - -
23/03:00am 17.3 NW 10 12 1012.8 - 0.8 Recent precip. - - - - - -
23/02:30am 17.5 WNW 11 17 1013.0 - 0.8 - - - - - - -
23/02:00am 18.3 WSW 6 9 1013.0 - 0.2 - - - - - - -
23/01:30am 18.3 W 6 10 1013.0 - 0.2 - - - - - - -
23/01:00am 17.9 WSW 5 8 1012.9 - 0.2 - - - - - - -
23/12:30am 18.2 WSW 7 10 1013.1 - 0.2 - - - - - - -
23/12:00am 18.3 WSW 9 13 1013.6 - 0.2 - - - - - - -
 
Date/Time
WST
Temp

°C
Wind Pressure Rain
since 9am
mm
Weather Cloud Vis
km
Sea
Height
m
Swell
Dir
 
Speed
knots
Gust
knots
hPa Trend Height
m
Period
s
Dir
22/11:30pm 18.3 WSW 9 13 1013.6 - 0.2 - - - - - - -
22/11:00pm 18.3 WSW 9 15 1014.2 - 0.2 - - - - - - -
22/10:30pm 19.2 W 10 15 1014.2 - 0.0 - - - - - - -
22/10:00pm 19.3 WNW 10 12 1014.3 - 0.0 - - - - - - -
22/09:30pm 18.9 WNW 10 14 1013.9 - 0.0 - - - - - - -
22/09:00pm 19.3 WNW 13 18 1013.8 - 0.0 - - - - - - -
22/08:30pm 19.4 WNW 14 18 1013.9 - 0.0 - - - - - - -
22/08:00pm 19.4 WNW 10 14 1013.6 - 0.0 - - - - - - -
22/07:30pm 19.3 WNW 10 13 1012.9 - 0.0 - - - - - - -
22/07:00pm 19.4 WNW 13 18 1012.8 - 0.0 - - - - - - -
22/06:30pm 19.5 WNW 15 18 1012.4 - 0.0 - - - - - - -
22/06:00pm 19.6 WNW 16 20 1012.3 - 0.0 - - - - - - -
22/05:30pm 20.0 WNW 17 23 1012.1 - 0.0 - - - - - - -
22/05:00pm 21.1 WNW 13 18 1011.8 - 0.0 - - - - - - -
22/04:30pm 21.4 WNW 8 10 1011.7 - 0.0 - - - - - - -
22/04:00pm 21.7 WNW 9 13 1011.6 - 0.0 - - - - - - -
22/03:30pm 21.7 WNW 13 16 1011.4 - 0.0 - - - - - - -

Other Formats:

Comma delimited format used in spreadsheet applications
http://www.bom.gov.au/fwo/IDW60701/IDW60701.94605.axf

JavaScript Object Notation format (JSON) in row-major order
http://www.bom.gov.au/fwo/IDW60701/IDW60701.94605.json